»·PEaware :: AAL450 KPHX-KSLC

AAL450 :: KPHX-KSLC

FLIGHT INFORMATION

Flight Status: Arrived
Operator:
American Airlines
More flights by this operator :: More flights under this callsign
Pilot: Ben F. (2808)
Aircraft: MCDONNELL-DOUGLAS MD-82
(MD82)
More flights by this aircraft type
Origin: KPHX Phoenix Sky Harbor Intl
United States
Destination: KSLC Salt Lake City Intl
United States
More flights between these airports :: More routes between these airports
Route: SNOBL5 GCN BCE QWENN5
File this flight plan on PilotEdge
Remarks:
Altitude:
(Current/Filed)
34,000ft
Speed:
(Current/Filed)
439kts
Departed: 06-Mar-18 07:17 PM
Arrived: 06-Mar-18 08:32 PM
Distance/Time
Traveled:
441nm/1:15
Distance/Time
To Go:
Arrived

Flight Plot

Page will automatically refresh every two minutes.

Flight plan parsing failed; only flown route is shown


Map Options




Map Legend


Flown Route
Filed Route
Departure Airport
Arrival Airport
Navaid (VOR, NDB)
Fix

Horizontal Profiles

Position Reports

Time Latitude Longitude Heading Altitude Ground
Speed
06-Mar-18 18:54 33.433422 -112.007964 316 1144ft 0kts
06-Mar-18 18:55 33.433422 -112.007964 316 1144ft 0kts
06-Mar-18 18:56 33.433422 -112.007964 316 1144ft 0kts
06-Mar-18 18:57 33.433422 -112.007964 316 1144ft 0kts
06-Mar-18 18:58 33.433422 -112.007964 316 1144ft 0kts
06-Mar-18 18:59 33.433422 -112.007964 316 1144ft 0kts
06-Mar-18 19:00 33.433422 -112.007964 316 1144ft 0kts
06-Mar-18 19:01 33.433422 -112.007964 316 1144ft 0kts
06-Mar-18 19:02 33.433422 -112.007964 316 1144ft 0kts
06-Mar-18 19:03 33.433422 -112.007964 316 1144ft 0kts
06-Mar-18 19:04 33.433422 -112.007964 316 1144ft 0kts
06-Mar-18 19:05 33.433422 -112.007964 316 1144ft 0kts
06-Mar-18 19:06 33.433422 -112.007964 316 1144ft 0kts
06-Mar-18 19:07 33.433422 -112.007964 316 1144ft 0kts
06-Mar-18 19:08 33.433311 -112.007642 222 1144ft 3kts
06-Mar-18 19:09 33.433562 -112.007585 179 1144ft 0kts
06-Mar-18 19:10 33.433562 -112.007585 179 1144ft 0kts
06-Mar-18 19:11 33.433559 -112.007585 179 1144ft 0kts
06-Mar-18 19:12 33.433557 -112.007585 179 1144ft 0kts
06-Mar-18 19:13 33.433555 -112.007585 179 1144ft 0kts
06-Mar-18 19:14 33.433552 -112.007585 179 1144ft 0kts
06-Mar-18 19:15 33.433550 -112.007585 179 1144ft 0kts
06-Mar-18 19:16 33.433489 -112.007585 179 1144ft 0kts
06-Mar-18 19:17 33.433481 -112.007585 179 1144ft 0kts
06-Mar-18 19:18 33.433478 -112.007585 179 1144ft 0kts
06-Mar-18 19:19 33.432170 -112.007125 103 1144ft 16kts
06-Mar-18 19:20 33.432117 -112.000649 90 1144ft 23kts
06-Mar-18 19:21 33.432122 -111.994015 95 1144ft 7kts
06-Mar-18 19:22 33.431972 -111.993719 145 1144ft 0kts
06-Mar-18 19:23 33.431042 -111.994403 266 1144ft 12kts
06-Mar-18 19:24 33.431007 -112.011544 270 1144ft 144kts
06-Mar-18 19:25 33.431822 -112.068511 284 2976ft 197kts
06-Mar-18 19:26 33.479526 -112.123840 321 4711ft 266kts
06-Mar-18 19:27 33.543669 -112.170638 352 7832ft 280kts
06-Mar-18 19:28 33.622917 -112.168206 22 10565ft 299kts
06-Mar-18 19:29 33.686729 -112.092893 51 12410ft 341kts
06-Mar-18 19:30 33.750407 -112.003808 39 14613ft 360kts
06-Mar-18 19:31 33.846868 -111.972252 3 16735ft 370kts
06-Mar-18 19:32 33.951436 -111.960018 4 18843ft 381kts
06-Mar-18 19:33 34.057741 -111.942003 5 20840ft 390kts
06-Mar-18 19:34 34.165499 -111.938089 350 21153ft 386kts
06-Mar-18 19:35 34.272340 -111.954040 350 21171ft 388kts
06-Mar-18 19:36 34.380243 -111.967406 350 22962ft 392kts
06-Mar-18 19:37 34.490138 -111.979585 350 24501ft 399kts
06-Mar-18 19:38 34.601376 -111.991223 350 25918ft 404kts
06-Mar-18 19:39 34.694948 -112.001773 350 26952ft 407kts
06-Mar-18 19:40 34.827948 -112.016299 350 28193ft 413kts
06-Mar-18 19:41 34.923492 -112.026688 349 28987ft 415kts
06-Mar-18 19:42 35.038971 -112.040075 349 29807ft 418kts
06-Mar-18 19:43 35.154420 -112.052792 349 30916ft 413kts
06-Mar-18 19:44 35.286939 -112.068167 348 32098ft 408kts
06-Mar-18 19:45 35.381115 -112.078825 348 32820ft 405kts
06-Mar-18 19:46 35.490571 -112.088775 347 34040ft 390kts
06-Mar-18 19:47 35.599463 -112.100020 346 34279ft 398kts
06-Mar-18 19:48 35.709527 -112.113284 346 34286ft 396kts
06-Mar-18 19:49 35.819431 -112.126671 346 34291ft 397kts
06-Mar-18 19:50 35.929895 -112.140211 346 34292ft 397kts
06-Mar-18 19:51 36.040375 -112.151406 348 34293ft 399kts
06-Mar-18 19:52 36.151040 -112.160662 347 34293ft 399kts
06-Mar-18 19:53 36.262086 -112.170769 347 34293ft 399kts
06-Mar-18 19:54 36.372576 -112.181163 347 34294ft 398kts
06-Mar-18 19:55 36.483095 -112.191017 347 34295ft 397kts
06-Mar-18 19:56 36.593949 -112.200841 347 34296ft 398kts
06-Mar-18 19:57 36.704536 -112.210736 347 34297ft 399kts
06-Mar-18 19:58 36.815429 -112.220590 347 34298ft 399kts
06-Mar-18 19:59 36.925888 -112.230316 347 34298ft 397kts
06-Mar-18 20:00 37.036332 -112.240280 347 34310ft 399kts
06-Mar-18 20:01 37.147153 -112.250817 346 34313ft 398kts
06-Mar-18 20:02 37.257588 -112.261402 347 34316ft 398kts
06-Mar-18 20:03 37.368381 -112.271214 346 34320ft 399kts
06-Mar-18 20:04 37.479377 -112.281524 346 34325ft 399kts
06-Mar-18 20:05 37.589896 -112.292229 346 34329ft 399kts
06-Mar-18 20:06 37.700952 -112.302362 350 34341ft 404kts
06-Mar-18 20:07 37.814223 -112.288448 358 34342ft 412kts
06-Mar-18 20:08 37.927765 -112.269529 357 34341ft 411kts
06-Mar-18 20:09 38.041527 -112.253726 356 34341ft 410kts
06-Mar-18 20:10 38.154898 -112.238538 356 34342ft 410kts
06-Mar-18 20:11 38.268241 -112.223151 356 34342ft 410kts
06-Mar-18 20:12 38.381942 -112.207258 356 34344ft 410kts
06-Mar-18 20:13 38.495255 -112.191542 356 34356ft 410kts
06-Mar-18 20:14 38.609162 -112.175396 356 34359ft 411kts
06-Mar-18 20:15 38.722601 -112.158952 356 34362ft 411kts
06-Mar-18 20:16 38.835920 -112.143142 356 34367ft 409kts
06-Mar-18 20:17 38.949572 -112.127476 356 34370ft 409kts
06-Mar-18 20:18 39.063016 -112.112144 355 34370ft 408kts
06-Mar-18 20:19 39.176233 -112.096503 356 32133ft 412kts
06-Mar-18 20:20 39.291670 -112.080571 357 29149ft 419kts
06-Mar-18 20:21 39.406153 -112.064173 359 26233ft 409kts
06-Mar-18 20:22 39.517480 -112.048201 0 23496ft 394kts
06-Mar-18 20:23 39.624159 -112.032709 0 20942ft 378kts
06-Mar-18 20:24 39.726338 -112.018799 0 18544ft 361kts
06-Mar-18 20:25 39.824397 -112.005419 1 16264ft 345kts
06-Mar-18 20:26 39.917689 -111.992867 2 14999ft 332kts
06-Mar-18 20:27 40.009739 -111.979332 2 14996ft 332kts
06-Mar-18 20:28 40.098707 -111.966590 2 13747ft 311kts
06-Mar-18 20:29 40.188000 -111.954276 3 12140ft 320kts
06-Mar-18 20:30 40.273150 -111.941530 7 11084ft 288kts
06-Mar-18 20:31 40.350475 -111.931038 3 10136ft 270kts
06-Mar-18 20:32 40.423805 -111.929561 355 9208ft 260kts
06-Mar-18 20:33 40.495187 -111.942011 351 8158ft 254kts
06-Mar-18 20:34 40.564138 -111.948995 356 7994ft 247kts
06-Mar-18 20:35 40.628378 -111.956098 354 7072ft 212kts
06-Mar-18 20:36 40.681754 -111.962349 355 6049ft 171kts
06-Mar-18 20:37 40.725737 -111.967367 355 5163ft 149kts
06-Mar-18 20:38 40.769362 -111.972482 352 4385ft 161kts
06-Mar-18 20:39 40.791931 -111.976055 297 4236ft 14kts
06-Mar-18 20:40 40.788881 -111.977002 174 4236ft 17kts
06-Mar-18 20:41 40.786196 -111.977591 256 4236ft 8kts
06-Mar-18 20:42 40.785748 -111.978619 240 4236ft 0kts
06-Mar-18 20:43 40.785747 -111.978620 240 4236ft 0kts
06-Mar-18 20:44 40.785747 -111.978620 240 4236ft 0kts
06-Mar-18 20:45 40.785747 -111.978620 240 4236ft 0kts
06-Mar-18 20:46 40.785747 -111.978620 240 4236ft 0kts
06-Mar-18 20:47 40.785747 -111.978620 240 4236ft 0kts
06-Mar-18 20:48 40.785747 -111.978620 240 4236ft 0kts
06-Mar-18 20:49 40.785747 -111.978620 240 4236ft 0kts
06-Mar-18 20:50 40.785747 -111.978620 240 4236ft 0kts
06-Mar-18 20:51 40.785747 -111.978620 240 4236ft 0kts

Navigation Log

Ident Type
Flight plan parsing failed, navigation log unavailable